Prescott, Arizona
Current Conditions -  °F | °C
As of 1:53 PM on Saturday 20 Dec 2014 (Local Time) from KPRC Reporting Station
Clear Clear  
Wind Chill: 52°   Ceiling: Unl
Heat Index: 52°   Visibility: 10mi
Dew Point: 26°   Wind: 3mph
Humidity: 37%   Direction: 50°NE
Pressure: 30.12"   Gusts: NA
Location:  34.54°N, 112.47°W
Report Text: KPRC 202053Z 05003KT 10SM CLR 11/M03 A3012 RMK AO2 SLP171 T01111033 58020
Loading
Personal Weather Stations






























Interactive Weather Map New forecast layout! Learn more

10-Day Weather Forecast

Advertisements
Track Severe Weather on mobile